sensor_id;sensor_type;location;lat;lon;timestamp;pressure;altitude;pressure_sealevel;temperature;humidity
43621;BME280;29213;50.770;7.298;2022-09-02T00:03:46;100923.78;;;16.52;41.32
43621;BME280;29213;50.770;7.298;2022-09-02T00:06:13;100978.00;;;16.84;41.92
43621;BME280;29213;50.770;7.298;2022-09-02T00:08:39;100933.91;;;16.50;41.96
43621;BME280;29213;50.770;7.298;2022-09-02T00:11:06;100990.78;;;16.75;41.98
43621;BME280;29213;50.770;7.298;2022-09-02T00:13:35;100987.19;;;16.68;42.09
43621;BME280;29213;50.770;7.298;2022-09-02T00:16:01;100944.72;;;16.35;42.20
43621;BME280;29213;50.770;7.298;2022-09-02T00:18:27;100937.88;;;16.32;42.34
43621;BME280;29213;50.770;7.298;2022-09-02T00:20:52;100951.97;;;16.34;42.33
43621;BME280;29213;50.770;7.298;2022-09-02T00:23:18;100883.25;;;15.96;42.43
43621;BME280;29213;50.770;7.298;2022-09-02T00:25:44;100977.91;;;16.42;42.67
43621;BME280;29213;50.770;7.298;2022-09-02T00:28:12;100830.31;;;15.53;42.88
43621;BME280;29213;50.770;7.298;2022-09-02T00:30:38;100970.13;;;16.32;42.76
43621;BME280;29213;50.770;7.298;2022-09-02T00:33:04;100955.75;;;16.18;42.91
43621;BME280;29213;50.770;7.298;2022-09-02T00:35:30;100945.06;;;16.03;43.12
43621;BME280;29213;50.770;7.298;2022-09-02T00:37:56;100981.81;;;16.18;43.33
43621;BME280;29213;50.770;7.298;2022-09-02T00:40:21;100965.59;;;16.11;43.49
43621;BME280;29213;50.770;7.298;2022-09-02T00:42:48;100772.19;;;14.87;43.78
43621;BME280;29213;50.770;7.298;2022-09-02T00:45:15;100945.03;;;15.81;44.03
43621;BME280;29213;50.770;7.298;2022-09-02T00:47:43;100926.38;;;15.73;44.22
43621;BME280;29213;50.770;7.298;2022-09-02T00:50:12;100849.56;;;15.20;44.77
43621;BME280;29213;50.770;7.298;2022-09-02T00:52:52;100951.91;;;15.69;44.91
43621;BME280;29213;50.770;7.298;2022-09-02T00:55:23;100934.81;;;15.55;44.97
43621;BME280;29213;50.770;7.298;2022-09-02T00:57:53;100959.16;;;15.68;45.31
43621;BME280;29213;50.770;7.298;2022-09-02T01:00:27;100956.38;;;15.61;45.61
43621;BME280;29213;50.770;7.298;2022-09-02T01:02:58;100913.25;;;15.26;45.41
43621;BME280;29213;50.770;7.298;2022-09-02T01:05:27;100796.56;;;14.55;45.90
43621;BME280;29213;50.770;7.298;2022-09-02T01:07:55;100953.53;;;15.48;46.04
43621;BME280;29213;50.770;7.298;2022-09-02T01:10:32;100958.00;;;15.41;46.36
43621;BME280;29213;50.770;7.298;2022-09-02T01:13:06;100963.47;;;15.32;46.31
43621;BME280;29213;50.770;7.298;2022-09-02T01:15:35;100949.78;;;15.27;46.17
43621;BME280;29213;50.770;7.298;2022-09-02T01:18:03;100905.72;;;14.91;46.32
43621;BME280;29213;50.770;7.298;2022-09-02T01:20:29;100928.75;;;15.01;46.79
43621;BME280;29213;50.770;7.298;2022-09-02T01:22:55;100767.22;;;13.93;46.63
43621;BME280;29213;50.770;7.298;2022-09-02T01:25:26;100906.56;;;14.77;46.93
43621;BME280;29213;50.770;7.298;2022-09-02T01:27:52;100820.56;;;14.18;47.26
43621;BME280;29213;50.770;7.298;2022-09-02T01:30:23;100956.75;;;14.98;47.31
43621;BME280;29213;50.770;7.298;2022-09-02T01:32:50;100955.66;;;14.92;46.91
43621;BME280;29213;50.770;7.298;2022-09-02T01:35:16;100831.53;;;14.08;47.56
43621;BME280;29213;50.770;7.298;2022-09-02T01:37:42;100944.38;;;14.82;47.45
43621;BME280;29213;50.770;7.298;2022-09-02T01:40:10;100914.13;;;14.58;47.73
43621;BME280;29213;50.770;7.298;2022-09-02T01:42:37;100951.31;;;14.76;47.29
43621;BME280;29213;50.770;7.298;2022-09-02T01:45:05;100944.66;;;14.72;47.55
43621;BME280;29213;50.770;7.298;2022-09-02T01:47:30;100851.13;;;14.09;47.23
43621;BME280;29213;50.770;7.298;2022-09-02T01:49:57;100937.34;;;14.66;47.48
43621;BME280;29213;50.770;7.298;2022-09-02T01:52:25;100719.94;;;13.23;47.35
43621;BME280;29213;50.770;7.298;2022-09-02T01:54:52;100818.81;;;13.87;47.80
43621;BME280;29213;50.770;7.298;2022-09-02T01:57:18;100934.91;;;14.56;47.88
43621;BME280;29213;50.770;7.298;2022-09-02T01:59:44;100873.75;;;14.06;47.83
43621;BME280;29213;50.770;7.298;2022-09-02T02:02:11;100869.19;;;14.07;47.80
43621;BME280;29213;50.770;7.298;2022-09-02T02:04:37;100938.50;;;14.48;48.13
43621;BME280;29213;50.770;7.298;2022-09-02T02:07:03;100852.22;;;13.91;47.99
43621;BME280;29213;50.770;7.298;2022-09-02T02:09:29;100919.34;;;14.36;48.21
43621;BME280;29213;50.770;7.298;2022-09-02T02:11:55;100906.72;;;14.22;48.54
43621;BME280;29213;50.770;7.298;2022-09-02T02:14:21;100943.09;;;14.39;48.43
43621;BME280;29213;50.770;7.298;2022-09-02T02:16:47;100826.00;;;13.63;48.45
43621;BME280;29213;50.770;7.298;2022-09-02T02:19:13;100936.69;;;14.25;48.55
43621;BME280;29213;50.770;7.298;2022-09-02T02:21:39;100939.38;;;14.25;48.51
43621;BME280;29213;50.770;7.298;2022-09-02T02:24:04;100888.34;;;13.95;48.78
43621;BME280;29213;50.770;7.298;2022-09-02T02:26:30;100859.91;;;13.71;48.56
43621;BME280;29213;50.770;7.298;2022-09-02T02:28:56;100895.25;;;13.89;48.15
43621;BME280;29213;50.770;7.298;2022-09-02T02:31:21;100851.47;;;13.59;48.38
43621;BME280;29213;50.770;7.298;2022-09-02T02:33:48;100931.63;;;14.07;48.41
43621;BME280;29213;50.770;7.298;2022-09-02T02:36:15;100757.03;;;12.95;48.56
43621;BME280;29213;50.770;7.298;2022-09-02T02:38:40;100920.84;;;13.92;48.68
43621;BME280;29213;50.770;7.298;2022-09-02T02:41:06;100944.19;;;14.07;48.73
43621;BME280;29213;50.770;7.298;2022-09-02T02:43:33;100859.53;;;13.50;48.78
43621;BME280;29213;50.770;7.298;2022-09-02T02:45:59;100892.38;;;13.68;48.67
43621;BME280;29213;50.770;7.298;2022-09-02T02:48:24;100881.72;;;13.59;48.86
43621;BME280;29213;50.770;7.298;2022-09-02T02:50:50;100856.91;;;13.42;49.13
43621;BME280;29213;50.770;7.298;2022-09-02T02:53:15;100940.94;;;13.88;49.19
43621;BME280;29213;50.770;7.298;2022-09-02T02:55:42;100941.28;;;13.85;49.22
43621;BME280;29213;50.770;7.298;2022-09-02T02:58:08;100782.66;;;12.81;49.37
43621;BME280;29213;50.770;7.298;2022-09-02T03:00:34;100940.19;;;13.71;49.39
43621;BME280;29213;50.770;7.298;2022-09-02T03:03:09;100870.38;;;13.26;49.49
43621;BME280;29213;50.770;7.298;2022-09-02T03:05:36;100930.38;;;13.63;49.56
43621;BME280;29213;50.770;7.298;2022-09-02T03:08:08;100897.88;;;13.43;49.56
43621;BME280;29213;50.770;7.298;2022-09-02T03:10:34;100947.56;;;13.69;49.73
43621;BME280;29213;50.770;7.298;2022-09-02T03:13:01;100905.06;;;13.42;49.97
43621;BME280;29213;50.770;7.298;2022-09-02T03:15:27;100949.78;;;13.65;50.17
43621;BME280;29213;50.770;7.298;2022-09-02T03:17:54;100945.59;;;13.62;50.46
43621;BME280;29213;50.770;7.298;2022-09-02T03:20:20;100942.25;;;13.60;50.63
43621;BME280;29213;50.770;7.298;2022-09-02T03:22:46;100944.28;;;13.58;50.38
43621;BME280;29213;50.770;7.298;2022-09-02T03:25:15;100932.09;;;13.56;50.67
43621;BME280;29213;50.770;7.298;2022-09-02T03:27:41;100942.13;;;13.54;50.89
43621;BME280;29213;50.770;7.298;2022-09-02T03:30:11;100938.63;;;13.53;50.75
43621;BME280;29213;50.770;7.298;2022-09-02T03:32:37;100792.25;;;12.59;50.80
43621;BME280;29213;50.770;7.298;2022-09-02T03:35:04;100932.78;;;13.49;50.79
43621;BME280;29213;50.770;7.298;2022-09-02T03:37:32;100801.75;;;12.69;50.96
43621;BME280;29213;50.770;7.298;2022-09-02T03:39:57;100910.13;;;13.29;51.21
43621;BME280;29213;50.770;7.298;2022-09-02T03:42:23;100918.13;;;13.37;50.78
43621;BME280;29213;50.770;7.298;2022-09-02T03:44:48;100856.44;;;12.99;50.88
43621;BME280;29213;50.770;7.298;2022-09-02T03:47:14;100815.22;;;12.76;51.21
43621;BME280;29213;50.770;7.298;2022-09-02T03:49:41;100805.25;;;12.70;51.28
43621;BME280;29213;50.770;7.298;2022-09-02T03:52:07;100850.94;;;12.92;51.05
43621;BME280;29213;50.770;7.298;2022-09-02T03:54:32;100836.75;;;12.91;51.28
43621;BME280;29213;50.770;7.298;2022-09-02T03:56:57;100871.47;;;13.08;51.44
43621;BME280;29213;50.770;7.298;2022-09-02T03:59:23;100891.63;;;13.19;51.31
43621;BME280;29213;50.770;7.298;2022-09-02T04:01:49;100912.81;;;13.29;51.51
43621;BME280;29213;50.770;7.298;2022-09-02T04:04:17;100921.47;;;13.39;51.45
43621;BME280;29213;50.770;7.298;2022-09-02T04:06:43;100925.16;;;13.38;51.59
43621;BME280;29213;50.770;7.298;2022-09-02T04:09:09;100918.31;;;13.35;51.68
43621;BME280;29213;50.770;7.298;2022-09-02T04:11:34;100885.50;;;13.10;51.84
43621;BME280;29213;50.770;7.298;2022-09-02T04:14:01;100917.66;;;13.33;51.68
43621;BME280;29213;50.770;7.298;2022-09-02T04:16:27;100889.97;;;13.09;51.93
43621;BME280;29213;50.770;7.298;2022-09-02T04:18:57;100918.84;;;13.31;51.96
43621;BME280;29213;50.770;7.298;2022-09-02T04:21:24;100916.34;;;13.29;51.94
43621;BME280;29213;50.770;7.298;2022-09-02T04:23:49;100782.31;;;12.44;51.99
43621;BME280;29213;50.770;7.298;2022-09-02T04:26:17;100914.19;;;13.25;51.99
43621;BME280;29213;50.770;7.298;2022-09-02T04:28:43;100786.16;;;12.41;52.34
43621;BME280;29213;50.770;7.298;2022-09-02T04:31:11;100837.78;;;12.74;52.16
43621;BME280;29213;50.770;7.298;2022-09-02T04:33:37;100831.47;;;12.66;52.34
43621;BME280;29213;50.770;7.298;2022-09-02T04:36:05;100917.19;;;13.21;52.62
43621;BME280;29213;50.770;7.298;2022-09-02T04:38:31;100836.81;;;12.66;52.22
43621;BME280;29213;50.770;7.298;2022-09-02T04:40:56;100837.78;;;12.74;52.27
43621;BME280;29213;50.770;7.298;2022-09-02T04:43:22;100925.38;;;13.20;52.22
43621;BME280;29213;50.770;7.298;2022-09-02T04:45:49;100864.03;;;12.78;52.32
43621;BME280;29213;50.770;7.298;2022-09-02T04:48:16;100807.31;;;12.51;52.24
43621;BME280;29213;50.770;7.298;2022-09-02T04:50:43;100878.34;;;12.86;51.82
43621;BME280;29213;50.770;7.298;2022-09-02T04:53:10;100927.25;;;13.11;51.25
43621;BME280;29213;50.770;7.298;2022-09-02T04:55:40;100888.41;;;12.75;51.18
43621;BME280;29213;50.770;7.298;2022-09-02T04:58:08;100916.47;;;12.79;51.57
43621;BME280;29213;50.770;7.298;2022-09-02T05:00:35;100919.00;;;12.64;52.07
43621;BME280;29213;50.770;7.298;2022-09-02T05:03:00;100830.59;;;12.09;52.36
43621;BME280;29213;50.770;7.298;2022-09-02T05:05:26;100859.25;;;12.32;52.64
43621;BME280;29213;50.770;7.298;2022-09-02T05:07:52;100785.19;;;12.01;52.73
43621;BME280;29213;50.770;7.298;2022-09-02T05:10:19;100867.09;;;12.42;52.77
43621;BME280;29213;50.770;7.298;2022-09-02T05:12:44;100813.38;;;12.20;52.72
43621;BME280;29213;50.770;7.298;2022-09-02T05:15:11;100869.91;;;12.65;52.66
43621;BME280;29213;50.770;7.298;2022-09-02T05:17:36;100873.91;;;12.69;52.57
43621;BME280;29213;50.770;7.298;2022-09-02T05:20:06;100926.41;;;13.02;52.71
43621;BME280;29213;50.770;7.298;2022-09-02T05:22:33;100891.88;;;12.84;52.18
43621;BME280;29213;50.770;7.298;2022-09-02T05:24:59;100818.19;;;12.41;51.66
43621;BME280;29213;50.770;7.298;2022-09-02T05:27:24;100774.16;;;12.21;51.54
43621;BME280;29213;50.770;7.298;2022-09-02T05:29:54;100797.88;;;12.24;51.60
43621;BME280;29213;50.770;7.298;2022-09-02T05:32:20;100895.41;;;12.76;51.43
43621;BME280;29213;50.770;7.298;2022-09-02T05:34:47;100905.56;;;12.89;51.45
43621;BME280;29213;50.770;7.298;2022-09-02T05:37:12;100802.84;;;12.27;51.47
43621;BME280;29213;50.770;7.298;2022-09-02T05:39:38;100788.53;;;12.20;51.40
43621;BME280;29213;50.770;7.298;2022-09-02T05:42:03;100919.59;;;13.08;51.29
43621;BME280;29213;50.770;7.298;2022-09-02T05:44:29;100785.00;;;12.27;51.21
43621;BME280;29213;50.770;7.298;2022-09-02T05:46:55;100918.72;;;13.16;51.33
43621;BME280;29213;50.770;7.298;2022-09-02T05:49:21;100870.66;;;12.91;51.38
43621;BME280;29213;50.770;7.298;2022-09-02T05:51:49;100916.50;;;13.28;51.68
43621;BME280;29213;50.770;7.298;2022-09-02T05:54:20;100724.97;;;12.07;51.39
43621;BME280;29213;50.770;7.298;2022-09-02T05:56:49;100915.00;;;13.25;50.87
43621;BME280;29213;50.770;7.298;2022-09-02T05:59:15;100808.59;;;12.72;51.47
43621;BME280;29213;50.770;7.298;2022-09-02T06:01:42;100911.72;;;13.46;51.52
43621;BME280;29213;50.770;7.298;2022-09-02T06:04:08;100907.91;;;13.41;51.58
43621;BME280;29213;50.770;7.298;2022-09-02T06:06:33;100887.88;;;13.36;51.98
43621;BME280;29213;50.770;7.298;2022-09-02T06:09:00;100916.16;;;13.62;52.02
43621;BME280;29213;50.770;7.298;2022-09-02T06:11:26;100921.47;;;13.71;52.03
43621;BME280;29213;50.770;7.298;2022-09-02T06:13:53;100831.28;;;13.25;52.04
43621;BME280;29213;50.770;7.298;2022-09-02T06:16:21;100918.19;;;13.84;52.27
43621;BME280;29213;50.770;7.298;2022-09-02T06:18:47;100857.03;;;13.49;51.85
43621;BME280;29213;50.770;7.298;2022-09-02T06:21:13;100914.47;;;13.93;51.95
43621;BME280;29213;50.770;7.298;2022-09-02T06:23:40;100878.22;;;13.82;51.55
43621;BME280;29213;50.770;7.298;2022-09-02T06:26:07;100828.66;;;13.63;51.78
43621;BME280;29213;50.770;7.298;2022-09-02T06:28:33;100855.28;;;13.88;50.43
43621;BME280;29213;50.770;7.298;2022-09-02T06:30:59;100818.84;;;13.79;50.83
43621;BME280;29213;50.770;7.298;2022-09-02T06:33:24;100846.22;;;14.12;50.29
43621;BME280;29213;50.770;7.298;2022-09-02T06:35:50;100805.34;;;13.95;47.46
43621;BME280;29213;50.770;7.298;2022-09-02T06:38:16;100833.88;;;14.11;45.36
43621;BME280;29213;50.770;7.298;2022-09-02T06:40:46;100901.47;;;14.52;45.62
43621;BME280;29213;50.770;7.298;2022-09-02T06:43:12;100848.00;;;14.20;45.35
43621;BME280;29213;50.770;7.298;2022-09-02T06:45:39;100882.69;;;14.37;45.22
43621;BME280;29213;50.770;7.298;2022-09-02T06:48:05;100903.75;;;14.70;45.44
43621;BME280;29213;50.770;7.298;2022-09-02T06:50:30;100903.69;;;14.93;45.82
43621;BME280;29213;50.770;7.298;2022-09-02T06:52:55;100820.03;;;14.53;45.43
43621;BME280;29213;50.770;7.298;2022-09-02T06:55:21;100897.41;;;15.16;45.21
43621;BME280;29213;50.770;7.298;2022-09-02T06:57:46;100893.25;;;15.14;44.19
43621;BME280;29213;50.770;7.298;2022-09-02T07:00:12;100831.78;;;14.67;44.45
43621;BME280;29213;50.770;7.298;2022-09-02T07:02:38;100902.22;;;15.06;44.58
43621;BME280;29213;50.770;7.298;2022-09-02T07:05:03;100762.66;;;14.32;44.38
43621;BME280;29213;50.770;7.298;2022-09-02T07:07:37;100881.03;;;15.11;44.33
43621;BME280;29213;50.770;7.298;2022-09-02T07:10:04;100852.38;;;14.96;43.73
43621;BME280;29213;50.770;7.298;2022-09-02T07:12:33;100842.28;;;14.99;44.04
43621;BME280;29213;50.770;7.298;2022-09-02T07:14:58;100842.47;;;14.97;43.60
43621;BME280;29213;50.770;7.298;2022-09-02T07:17:25;100759.97;;;14.62;43.47
43621;BME280;29213;50.770;7.298;2022-09-02T07:19:50;100808.63;;;15.11;43.28
43621;BME280;29213;50.770;7.298;2022-09-02T07:22:16;100863.25;;;15.62;42.59
43621;BME280;29213;50.770;7.298;2022-09-02T07:24:42;100839.47;;;15.59;42.73
43621;BME280;29213;50.770;7.298;2022-09-02T07:27:08;100888.47;;;16.05;42.78
43621;BME280;29213;50.770;7.298;2022-09-02T07:29:33;100813.84;;;15.78;42.84
43621;BME280;29213;50.770;7.298;2022-09-02T07:31:59;100886.06;;;16.38;42.71
43621;BME280;29213;50.770;7.298;2022-09-02T07:34:26;100882.88;;;16.56;43.41
43621;BME280;29213;50.770;7.298;2022-09-02T07:36:52;100687.75;;;15.63;42.95
43621;BME280;29213;50.770;7.298;2022-09-02T07:39:18;100832.91;;;16.69;41.17
43621;BME280;29213;50.770;7.298;2022-09-02T07:41:48;100789.94;;;16.40;40.69
43621;BME280;29213;50.770;7.298;2022-09-02T07:44:15;100881.13;;;17.06;41.48
43621;BME280;29213;50.770;7.298;2022-09-02T07:46:41;100865.31;;;16.96;40.67
43621;BME280;29213;50.770;7.298;2022-09-02T07:49:09;100714.34;;;16.15;40.49
43621;BME280;29213;50.770;7.298;2022-09-02T07:51:37;100646.94;;;15.74;39.96
43621;BME280;29213;50.770;7.298;2022-09-02T07:54:03;100807.09;;;16.46;40.04
43621;BME280;29213;50.770;7.298;2022-09-02T07:56:30;100801.41;;;16.56;40.23
43621;BME280;29213;50.770;7.298;2022-09-02T07:58:55;100790.84;;;16.54;39.93
43621;BME280;29213;50.770;7.298;2022-09-02T08:01:21;100774.28;;;16.51;40.02
43621;BME280;29213;50.770;7.298;2022-09-02T08:03:47;100778.94;;;16.77;40.24
43621;BME280;29213;50.770;7.298;2022-09-02T08:06:12;100825.72;;;17.25;39.89
43621;BME280;29213;50.770;7.298;2022-09-02T08:08:39;100616.78;;;16.08;39.78
43621;BME280;29213;50.770;7.298;2022-09-02T08:11:05;100869.94;;;17.71;39.75
43621;BME280;29213;50.770;7.298;2022-09-02T08:13:31;100808.78;;;17.52;39.92
43621;BME280;29213;50.770;7.298;2022-09-02T08:15:56;100785.81;;;17.56;39.54
43621;BME280;29213;50.770;7.298;2022-09-02T08:18:22;100750.78;;;17.49;38.82
43621;BME280;29213;50.770;7.298;2022-09-02T08:20:48;100850.47;;;18.23;39.01
43621;BME280;29213;50.770;7.298;2022-09-02T08:23:13;100736.06;;;17.65;39.08
43621;BME280;29213;50.770;7.298;2022-09-02T08:25:39;100813.78;;;18.09;38.52
43621;BME280;29213;50.770;7.298;2022-09-02T08:28:05;100778.34;;;17.92;38.34
43621;BME280;29213;50.770;7.298;2022-09-02T08:30:31;100864.75;;;18.51;38.26
43621;BME280;29213;50.770;7.298;2022-09-02T08:32:57;100857.88;;;18.62;38.55
43621;BME280;29213;50.770;7.298;2022-09-02T08:35:23;100791.53;;;18.34;38.50
43621;BME280;29213;50.770;7.298;2022-09-02T08:37:48;100828.19;;;18.75;39.41
43621;BME280;29213;50.770;7.298;2022-09-02T08:40:20;100811.56;;;18.78;38.13
43621;BME280;29213;50.770;7.298;2022-09-02T08:42:49;100744.22;;;18.51;37.71
43621;BME280;29213;50.770;7.298;2022-09-02T08:45:32;100855.06;;;19.48;38.15
43621;BME280;29213;50.770;7.298;2022-09-02T08:50:36;100824.34;;;19.42;36.77
43621;BME280;29213;50.770;7.298;2022-09-02T08:53:15;100803.47;;;19.56;36.79
43621;BME280;29213;50.770;7.298;2022-09-02T08:55:52;100786.81;;;19.27;36.18
43621;BME280;29213;50.770;7.298;2022-09-02T08:58:22;100835.53;;;19.78;36.35
43621;BME280;29213;50.770;7.298;2022-09-02T09:01:12;100803.56;;;19.75;35.95
43621;BME280;29213;50.770;7.298;2022-09-02T09:04:03;100801.41;;;19.84;35.76
43621;BME280;29213;50.770;7.298;2022-09-02T09:12:26;100839.56;;;20.82;35.00
43621;BME280;29213;50.770;7.298;2022-09-02T09:15:04;100825.94;;;20.71;34.64
43621;BME280;29213;50.770;7.298;2022-09-02T09:17:54;100794.91;;;20.54;34.84
43621;BME280;29213;50.770;7.298;2022-09-02T09:20:29;100795.34;;;20.89;35.75
43621;BME280;29213;50.770;7.298;2022-09-02T09:22:58;100792.53;;;21.14;35.13
43621;BME280;29213;50.770;7.298;2022-09-02T09:25:25;100818.03;;;21.37;33.93
43621;BME280;29213;50.770;7.298;2022-09-02T09:28:00;100771.22;;;21.30;34.45
43621;BME280;29213;50.770;7.298;2022-09-02T09:30:27;100773.34;;;21.28;33.97
43621;BME280;29213;50.770;7.298;2022-09-02T09:32:56;100812.78;;;21.54;32.24
43621;BME280;29213;50.770;7.298;2022-09-02T09:35:24;100713.09;;;20.90;30.41
43621;BME280;29213;50.770;7.298;2022-09-02T09:37:53;100788.44;;;21.35;30.82
43621;BME280;29213;50.770;7.298;2022-09-02T09:45:35;100801.91;;;21.42;30.99
43621;BME280;29213;50.770;7.298;2022-09-02T09:50:46;100793.34;;;21.69;32.26
43621;BME280;29213;50.770;7.298;2022-09-02T09:53:22;100763.31;;;21.71;32.05
43621;BME280;29213;50.770;7.298;2022-09-02T09:58:15;100781.00;;;21.97;30.23
43621;BME280;29213;50.770;7.298;2022-09-02T10:00:41;100709.47;;;21.74;30.79
43621;BME280;29213;50.770;7.298;2022-09-02T10:03:07;100743.38;;;22.13;29.97
43621;BME280;29213;50.770;7.298;2022-09-02T10:05:38;100677.06;;;21.92;30.16
43621;BME280;29213;50.770;7.298;2022-09-02T10:10:38;100704.34;;;22.26;30.54
43621;BME280;29213;50.770;7.298;2022-09-02T10:13:20;100776.13;;;22.47;27.99
43621;BME280;29213;50.770;7.298;2022-09-02T10:16:28;100781.34;;;22.13;29.38
43621;BME280;29213;50.770;7.298;2022-09-02T10:27:53;100772.88;;;22.21;29.26
43621;BME280;29213;50.770;7.298;2022-09-02T10:30:25;100770.97;;;22.34;28.77
43621;BME280;29213;50.770;7.298;2022-09-02T10:33:15;100756.34;;;22.35;28.51
43621;BME280;29213;50.770;7.298;2022-09-02T10:35:46;100687.09;;;21.79;28.05
43621;BME280;29213;50.770;7.298;2022-09-02T10:41:15;100749.94;;;22.53;29.06
43621;BME280;29213;50.770;7.298;2022-09-02T10:46:52;100747.75;;;22.26;27.68
43621;BME280;29213;50.770;7.298;2022-09-02T10:59:43;100637.56;;;21.12;26.53
43621;BME280;29213;50.770;7.298;2022-09-02T11:02:26;100709.81;;;21.42;26.71
43621;BME280;29213;50.770;7.298;2022-09-02T11:04:58;100692.22;;;21.33;27.27
43621;BME280;29213;50.770;7.298;2022-09-02T11:07:51;100715.56;;;21.46;27.77
43621;BME280;29213;50.770;7.298;2022-09-02T11:10:28;100627.25;;;20.78;26.88
43621;BME280;29213;50.770;7.298;2022-09-02T11:13:00;100743.09;;;21.31;27.07
43621;BME280;29213;50.770;7.298;2022-09-02T11:18:33;100656.75;;;20.68;27.91
43621;BME280;29213;50.770;7.298;2022-09-02T11:21:02;100728.34;;;21.15;27.66
43621;BME280;29213;50.770;7.298;2022-09-02T11:26:57;100664.69;;;21.24;27.68
43621;BME280;29213;50.770;7.298;2022-09-02T11:29:34;100731.03;;;21.57;27.13
43621;BME280;29213;50.770;7.298;2022-09-02T11:32:18;100734.56;;;21.70;26.85
43621;BME280;29213;50.770;7.298;2022-09-02T11:34:48;100716.06;;;21.67;27.50
43621;BME280;29213;50.770;7.298;2022-09-02T11:39:57;100473.78;;;20.31;26.60
43621;BME280;29213;50.770;7.298;2022-09-02T11:42:42;100671.53;;;21.74;26.42
43621;BME280;29213;50.770;7.298;2022-09-02T11:45:48;100705.88;;;22.34;27.00
43621;BME280;29213;50.770;7.298;2022-09-02T11:53:53;100691.91;;;22.42;25.68
43621;BME280;29213;50.770;7.298;2022-09-02T11:56:24;100623.84;;;22.02;25.74
43621;BME280;29213;50.770;7.298;2022-09-02T11:58:52;100478.84;;;21.35;27.22
43621;BME280;29213;50.770;7.298;2022-09-02T12:01:28;100695.88;;;22.80;25.80
43621;BME280;29213;50.770;7.298;2022-09-02T12:04:05;100587.78;;;22.02;25.37
43621;BME280;29213;50.770;7.298;2022-09-02T12:06:32;100686.88;;;22.63;25.78
43621;BME280;29213;50.770;7.298;2022-09-02T12:09:01;100694.78;;;22.64;25.90
43621;BME280;29213;50.770;7.298;2022-09-02T12:11:42;100685.03;;;22.51;25.64
43621;BME280;29213;50.770;7.298;2022-09-02T12:17:06;100648.69;;;22.23;26.55
43621;BME280;29213;50.770;7.298;2022-09-02T12:24:52;100597.06;;;22.06;26.58
43621;BME280;29213;50.770;7.298;2022-09-02T12:27:22;100642.88;;;22.32;27.18
43621;BME280;29213;50.770;7.298;2022-09-02T12:29:49;100540.31;;;21.58;27.33
43621;BME280;29213;50.770;7.298;2022-09-02T12:35:34;100658.97;;;22.50;26.62
43621;BME280;29213;50.770;7.298;2022-09-02T12:46:23;100631.44;;;22.59;27.69
43621;BME280;29213;50.770;7.298;2022-09-02T12:49:27;100610.13;;;22.50;26.80
43621;BME280;29213;50.770;7.298;2022-09-02T12:52:08;100651.81;;;22.44;26.79
43621;BME280;29213;50.770;7.298;2022-09-02T12:57:05;100602.13;;;22.26;27.41
43621;BME280;29213;50.770;7.298;2022-09-02T12:59:33;100634.06;;;22.53;26.73
43621;BME280;29213;50.770;7.298;2022-09-02T13:08:24;100630.47;;;22.65;25.65
43621;BME280;29213;50.770;7.298;2022-09-02T13:11:34;100632.22;;;22.71;26.16
43621;BME280;29213;50.770;7.298;2022-09-02T13:17:12;100616.22;;;22.40;25.36
43621;BME280;29213;50.770;7.298;2022-09-02T13:22:58;100616.22;;;22.40;25.61
43621;BME280;29213;50.770;7.298;2022-09-02T13:28:23;100579.69;;;22.31;26.27
43621;BME280;29213;50.770;7.298;2022-09-02T13:31:18;100604.47;;;22.69;25.40
43621;BME280;29213;50.770;7.298;2022-09-02T13:33:45;100576.66;;;22.45;24.35
43621;BME280;29213;50.770;7.298;2022-09-02T13:36:21;100570.72;;;22.31;25.77
43621;BME280;29213;50.770;7.298;2022-09-02T13:38:48;100562.84;;;22.29;25.16
43621;BME280;29213;50.770;7.298;2022-09-02T13:41:27;100579.63;;;22.43;25.23
43621;BME280;29213;50.770;7.298;2022-09-02T13:44:12;100534.97;;;22.34;24.97
43621;BME280;29213;50.770;7.298;2022-09-02T13:46:42;100566.13;;;22.48;26.13
43621;BME280;29213;50.770;7.298;2022-09-02T13:49:20;100543.13;;;22.34;25.03
43621;BME280;29213;50.770;7.298;2022-09-02T13:51:50;100553.16;;;22.67;25.82
43621;BME280;29213;50.770;7.298;2022-09-02T13:54:32;100491.91;;;22.37;24.72
43621;BME280;29213;50.770;7.298;2022-09-02T13:57:01;100526.19;;;22.44;24.76
43621;BME280;29213;50.770;7.298;2022-09-02T13:59:47;100578.16;;;22.87;26.03
43621;BME280;29213;50.770;7.298;2022-09-02T14:02:28;100515.81;;;22.58;24.68
43621;BME280;29213;50.770;7.298;2022-09-02T14:05:00;100544.38;;;22.77;25.03
43621;BME280;29213;50.770;7.298;2022-09-02T14:07:32;100500.38;;;22.41;24.40
43621;BME280;29213;50.770;7.298;2022-09-02T14:10:06;100435.38;;;22.00;24.63
43621;BME280;29213;50.770;7.298;2022-09-02T14:12:34;100540.41;;;22.68;25.55
43621;BME280;29213;50.770;7.298;2022-09-02T14:15:01;100389.00;;;21.67;25.15
43621;BME280;29213;50.770;7.298;2022-09-02T14:17:27;100478.00;;;22.34;25.88
43621;BME280;29213;50.770;7.298;2022-09-02T14:22:40;100485.31;;;22.33;24.54
43621;BME280;29213;50.770;7.298;2022-09-02T14:25:16;100490.94;;;22.14;24.77
43621;BME280;29213;50.770;7.298;2022-09-02T14:27:50;100323.91;;;21.04;25.42
43621;BME280;29213;50.770;7.298;2022-09-02T14:30:36;100548.63;;;22.56;25.82
43621;BME280;29213;50.770;7.298;2022-09-02T14:33:19;100513.28;;;22.34;25.82
43621;BME280;29213;50.770;7.298;2022-09-02T14:36:02;100540.34;;;22.80;26.09
43621;BME280;29213;50.770;7.298;2022-09-02T14:38:52;100488.44;;;22.25;25.08
43621;BME280;29213;50.770;7.298;2022-09-02T14:43:49;100536.38;;;22.53;25.51
43621;BME280;29213;50.770;7.298;2022-09-02T14:52:10;100499.75;;;22.22;26.15
43621;BME280;29213;50.770;7.298;2022-09-02T14:54:50;100541.28;;;22.39;25.69